Time;durP1;ratioP1;P1;durP2;ratioP2;P2;SDS_P1;SDS_P2;PMS_P1;PMS_P2;Temp;Humidity;BMP_temperature;BMP_pressure;BME280_temperature;BME280_humidity;BME280_pressure;Samples;Min_cycle;Max_cycle;Signal;HPM_P1;HPM_P2
2023/08/08 00:02:01;;;;;;;5.18;2.10;;;;;;;;;;5052792;28;20095;-74
2023/08/08 00:04:28;;;;;;;5.03;2.40;;;;;;;;;;5035913;28;20412;-73
2023/08/08 00:06:54;;;;;;;8.73;3.05;;;;;;;;;;5052444;28;20390;-74
2023/08/08 00:09:20;;;;;;;7.03;2.45;;;;;;;;;;5052400;28;20045;-73
2023/08/08 00:11:46;;;;;;;10.10;2.40;;;;;;;;;;5035768;28;20102;-74
2023/08/08 00:14:12;;;;;;;5.57;2.10;;;;;;;;;;5050453;28;20052;-74
2023/08/08 00:16:38;;;;;;;5.50;2.55;;;;;;;;;;5034985;28;20056;-73
2023/08/08 00:19:04;;;;;;;7.10;2.40;;;;;;;;;;5035873;28;20389;-73
2023/08/08 00:21:30;;;;;;;4.13;2.40;;;;;;;;;;5068731;28;20044;-73
2023/08/08 00:23:56;;;;;;;6.65;2.60;;;;;;;;;;5052461;28;20045;-74
2023/08/08 00:26:23;;;;;;;6.60;2.40;;;;;;;;;;5035164;28;20484;-73
2023/08/08 00:28:49;;;;;;;6.43;2.67;;;;;;;;;;5052269;28;20052;-73
2023/08/08 00:31:17;;;;;;;5.95;2.17;;;;;;;;;;5052004;28;20432;-73
2023/08/08 00:33:43;;;;;;;6.10;2.47;;;;;;;;;;5052421;28;20485;-73
2023/08/08 00:36:09;;;;;;;4.72;2.30;;;;;;;;;;5051455;28;20470;-73
2023/08/08 00:38:35;;;;;;;5.43;2.50;;;;;;;;;;5035796;28;20049;-74
2023/08/08 00:41:02;;;;;;;4.93;2.58;;;;;;;;;;5051883;28;20037;-73
2023/08/08 00:43:28;;;;;;;6.78;2.63;;;;;;;;;;5051843;28;20044;-74
2023/08/08 00:45:54;;;;;;;7.65;2.78;;;;;;;;;;5051847;28;20048;-74
2023/08/08 00:48:20;;;;;;;7.38;2.55;;;;;;;;;;5051249;28;20056;-73
2023/08/08 00:50:48;;;;;;;6.32;2.80;;;;;;;;;;5051925;28;20086;-73
2023/08/08 00:53:15;;;;;;;9.65;3.05;;;;;;;;;;5051686;28;20040;-73
2023/08/08 00:55:41;;;;;;;6.15;2.60;;;;;;;;;;5051323;28;20044;-73
2023/08/08 00:58:07;;;;;;;6.43;2.63;;;;;;;;;;5051289;28;20061;-74
2023/08/08 01:00:34;;;;;;;5.20;2.70;;;;;;;;;;5052953;28;20066;-73
2023/08/08 01:03:00;;;;;;;6.60;2.63;;;;;;;;;;5051704;28;20052;-73
2023/08/08 01:05:31;;;;;;;7.63;2.58;;;;;;;;;;5051468;28;20045;-74
2023/08/08 01:08:08;;;;;;;6.90;2.60;;;;;;;;;;5051287;28;20052;-73
2023/08/08 01:10:36;;;;;;;5.00;2.45;;;;;;;;;;5051630;28;20369;-74
2023/08/08 01:13:08;;;;;;;8.05;2.60;;;;;;;;;;5051893;28;20503;-74
2023/08/08 01:15:38;;;;;;;6.13;2.45;;;;;;;;;;5034464;28;20056;-74
2023/08/08 01:18:05;;;;;;;5.93;2.28;;;;;;;;;;5051196;28;20063;-73
2023/08/08 01:20:33;;;;;;;6.13;2.63;;;;;;;;;;5051348;28;20041;-73
2023/08/08 01:23:08;;;;;;;6.63;2.72;;;;;;;;;;5051661;28;20044;-74
2023/08/08 01:25:35;;;;;;;8.35;3.03;;;;;;;;;;5050720;28;20114;-74
2023/08/08 01:28:01;;;;;;;8.07;2.67;;;;;;;;;;5018527;28;20045;-74
2023/08/08 01:30:27;;;;;;;7.78;2.83;;;;;;;;;;5051025;28;20045;-73
2023/08/08 01:32:53;;;;;;;6.85;2.92;;;;;;;;;;5051248;28;20072;-74
2023/08/08 01:35:19;;;;;;;12.80;3.17;;;;;;;;;;5051308;28;20041;-73
2023/08/08 01:37:49;;;;;;;6.63;2.65;;;;;;;;;;5051397;28;20045;-74
2023/08/08 01:40:17;;;;;;;8.88;2.95;;;;;;;;;;5034275;28;20040;-74
2023/08/08 01:42:47;;;;;;;8.75;2.67;;;;;;;;;;5051341;28;20041;-73
2023/08/08 01:45:13;;;;;;;8.02;2.85;;;;;;;;;;5034217;28;20045;-74
2023/08/08 01:47:40;;;;;;;8.07;2.42;;;;;;;;;;5051152;28;20040;-74
2023/08/08 01:50:06;;;;;;;10.43;3.05;;;;;;;;;;5050717;28;20033;-73
2023/08/08 01:52:32;;;;;;;7.32;2.60;;;;;;;;;;5051350;28;20093;-73
2023/08/08 01:54:58;;;;;;;10.52;2.60;;;;;;;;;;5050228;28;20511;-73
2023/08/08 01:57:24;;;;;;;6.75;2.70;;;;;;;;;;5051510;28;20383;-73
2023/08/08 01:59:50;;;;;;;5.13;2.60;;;;;;;;;;5050777;28;20059;-74
2023/08/08 02:02:17;;;;;;;6.95;2.50;;;;;;;;;;5026467;28;20048;-74
2023/08/08 02:04:43;;;;;;;5.40;2.25;;;;;;;;;;5044082;28;20041;-73
2023/08/08 02:07:09;;;;;;;6.63;2.58;;;;;;;;;;5070900;28;20120;-73
2023/08/08 02:09:35;;;;;;;6.75;3.05;;;;;;;;;;5061311;28;20103;-74
2023/08/08 02:12:02;;;;;;;4.93;2.65;;;;;;;;;;5050505;28;20045;-74
2023/08/08 02:14:28;;;;;;;8.13;2.55;;;;;;;;;;5070923;28;20045;-74
2023/08/08 02:16:54;;;;;;;7.18;2.50;;;;;;;;;;5043222;28;20061;-73
2023/08/08 02:19:20;;;;;;;7.53;3.20;;;;;;;;;;5060344;28;20558;-73
2023/08/08 02:21:46;;;;;;;9.45;2.90;;;;;;;;;;5064111;28;20041;-74
2023/08/08 02:24:12;;;;;;;8.50;2.72;;;;;;;;;;5067992;28;20041;-74
2023/08/08 02:26:38;;;;;;;9.10;3.13;;;;;;;;;;5054082;28;20049;-73
2023/08/08 02:29:04;;;;;;;5.05;2.70;;;;;;;;;;5054205;28;20041;-74
2023/08/08 02:31:30;;;;;;;9.63;2.70;;;;;;;;;;5055495;28;20064;-74
2023/08/08 02:33:57;;;;;;;7.03;2.30;;;;;;;;;;5047943;28;20508;-74
2023/08/08 02:36:23;;;;;;;5.95;2.20;;;;;;;;;;5054080;28;20047;-74
2023/08/08 02:38:53;;;;;;;9.23;2.33;;;;;;;;;;5054417;28;20507;-74
2023/08/08 02:41:19;;;;;;;7.20;2.40;;;;;;;;;;5054009;28;20166;-74
2023/08/08 02:43:45;;;;;;;9.07;2.33;;;;;;;;;;5053813;28;20033;-74
2023/08/08 02:46:11;;;;;;;8.68;2.20;;;;;;;;;;5037110;28;20083;-74
2023/08/08 02:48:37;;;;;;;5.45;1.83;;;;;;;;;;5054089;28;20044;-75
2023/08/08 02:51:03;;;;;;;7.75;2.22;;;;;;;;;;5053985;28;20504;-76
2023/08/08 02:53:29;;;;;;;7.05;2.20;;;;;;;;;;5053734;28;20049;-75
2023/08/08 02:55:55;;;;;;;5.93;2.00;;;;;;;;;;5052776;28;20036;-75
2023/08/08 02:58:21;;;;;;;8.90;2.13;;;;;;;;;;5053131;28;20397;-77
2023/08/08 03:00:47;;;;;;;7.93;2.17;;;;;;;;;;5053888;28;20102;-76
2023/08/08 03:03:14;;;;;;;9.23;2.33;;;;;;;;;;5037552;28;20362;-77
2023/08/08 03:05:40;;;;;;;10.40;2.70;;;;;;;;;;5053522;28;20044;-76
2023/08/08 03:08:06;;;;;;;5.88;1.90;;;;;;;;;;5053834;28;20595;-75
2023/08/08 03:10:32;;;;;;;8.48;2.08;;;;;;;;;;5053924;28;20040;-75
2023/08/08 03:12:58;;;;;;;6.32;1.88;;;;;;;;;;5054642;28;20484;-76
2023/08/08 03:15:24;;;;;;;8.30;1.70;;;;;;;;;;5053407;28;20049;-76
2023/08/08 03:17:50;;;;;;;9.65;2.13;;;;;;;;;;5053468;28;20562;-75
2023/08/08 03:20:16;;;;;;;7.90;1.63;;;;;;;;;;5036771;28;20051;-76
2023/08/08 03:22:42;;;;;;;7.57;1.70;;;;;;;;;;5053322;28;20060;-75
2023/08/08 03:25:09;;;;;;;6.10;1.65;;;;;;;;;;5053068;28;20077;-75
2023/08/08 03:27:35;;;;;;;11.38;2.00;;;;;;;;;;5052911;28;20040;-76
2023/08/08 03:30:02;;;;;;;7.95;1.60;;;;;;;;;;5036827;28;20048;-75
2023/08/08 03:32:28;;;;;;;4.90;1.50;;;;;;;;;;5036646;28;20071;-76
2023/08/08 03:34:54;;;;;;;6.50;1.70;;;;;;;;;;5053385;28;20126;-75
2023/08/08 03:37:20;;;;;;;5.47;1.60;;;;;;;;;;5052741;28;20032;-77
2023/08/08 03:39:46;;;;;;;4.57;1.70;;;;;;;;;;5036497;28;20048;-75
2023/08/08 03:42:13;;;;;;;8.70;1.70;;;;;;;;;;5052972;28;20091;-76
2023/08/08 03:44:39;;;;;;;4.20;1.27;;;;;;;;;;5053110;28;20438;-76
2023/08/08 03:47:05;;;;;;;6.60;2.08;;;;;;;;;;5052910;28;20095;-75
2023/08/08 03:49:31;;;;;;;8.23;1.58;;;;;;;;;;5052749;28;20041;-75
2023/08/08 03:51:57;;;;;;;9.52;2.60;;;;;;;;;;5036325;28;20119;-76
2023/08/08 03:54:23;;;;;;;8.90;1.50;;;;;;;;;;5052684;28;20076;-76
2023/08/08 03:56:49;;;;;;;6.88;1.50;;;;;;;;;;5052371;28;20039;-76
2023/08/08 03:59:15;;;;;;;6.80;1.30;;;;;;;;;;5035873;28;20036;-75
2023/08/08 04:01:41;;;;;;;5.20;1.30;;;;;;;;;;5033976;28;20033;-76
2023/08/08 04:04:07;;;;;;;5.78;1.95;;;;;;;;;;5042662;28;20038;-75
2023/08/08 04:06:33;;;;;;;5.20;1.42;;;;;;;;;;5062647;28;20063;-76
2023/08/08 04:09:00;;;;;;;5.97;1.38;;;;;;;;;;5041466;28;20532;-76
2023/08/08 04:11:27;;;;;;;7.65;1.40;;;;;;;;;;5030111;28;20036;-76
2023/08/08 04:13:53;;;;;;;5.75;1.40;;;;;;;;;;5046658;28;20115;-76
2023/08/08 04:16:19;;;;;;;5.63;1.35;;;;;;;;;;5048026;28;20049;-75
2023/08/08 04:18:45;;;;;;;6.00;1.55;;;;;;;;;;5039572;28;20057;-77
2023/08/08 04:21:11;;;;;;;8.43;1.20;;;;;;;;;;5064326;28;20075;-75
2023/08/08 04:23:37;;;;;;;6.32;1.40;;;;;;;;;;5051664;28;20045;-76
2023/08/08 04:26:03;;;;;;;7.32;1.42;;;;;;;;;;5051793;28;20438;-76
2023/08/08 04:28:29;;;;;;;7.55;1.40;;;;;;;;;;5052277;28;20040;-76
2023/08/08 04:30:55;;;;;;;9.50;1.85;;;;;;;;;;5051874;28;20048;-75
2023/08/08 04:33:21;;;;;;;7.68;1.38;;;;;;;;;;5052147;28;20120;-77
2023/08/08 04:35:47;;;;;;;8.02;1.58;;;;;;;;;;5051988;28;20412;-76
2023/08/08 04:38:15;;;;;;;9.90;1.55;;;;;;;;;;5053295;28;20365;-77
2023/08/08 04:40:41;;;;;;;7.00;1.48;;;;;;;;;;5035466;28;20037;-77
2023/08/08 04:43:07;;;;;;;8.88;1.60;;;;;;;;;;5051883;28;20043;-76
2023/08/08 04:45:33;;;;;;;7.45;1.65;;;;;;;;;;5041104;28;20041;-76
2023/08/08 04:47:59;;;;;;;9.52;1.95;;;;;;;;;;5048939;28;20110;-75
2023/08/08 04:50:26;;;;;;;9.25;1.85;;;;;;;;;;5052670;28;20497;-75
2023/08/08 04:52:52;;;;;;;11.20;1.70;;;;;;;;;;5052975;28;20036;-76
2023/08/08 04:55:19;;;;;;;8.05;1.73;;;;;;;;;;5035425;28;20064;-74
2023/08/08 04:57:45;;;;;;;6.30;1.85;;;;;;;;;;5053028;28;20112;-75
2023/08/08 05:00:11;;;;;;;4.55;1.42;;;;;;;;;;5052598;28;20489;-75
2023/08/08 05:02:39;;;;;;;2.90;1.17;;;;;;;;;;5052064;28;20052;-75
2023/08/08 05:05:05;;;;;;;5.25;1.40;;;;;;;;;;5052009;28;20116;-75
2023/08/08 05:07:32;;;;;;;5.88;1.40;;;;;;;;;;5052040;28;20136;-75
2023/08/08 05:09:58;;;;;;;6.05;1.80;;;;;;;;;;5052189;28;20094;-75
2023/08/08 05:12:24;;;;;;;5.18;1.30;;;;;;;;;;5051839;28;20437;-75
2023/08/08 05:14:50;;;;;;;5.65;1.42;;;;;;;;;;5051429;28;20045;-76
2023/08/08 05:17:16;;;;;;;5.47;1.55;;;;;;;;;;5050467;28;20055;-76
2023/08/08 05:19:42;;;;;;;4.35;1.40;;;;;;;;;;5034456;28;20056;-75
2023/08/08 05:22:08;;;;;;;7.43;1.42;;;;;;;;;;5034861;28;20603;-74
2023/08/08 05:24:35;;;;;;;5.78;1.40;;;;;;;;;;5058480;28;20041;-75
2023/08/08 05:27:03;;;;;;;5.38;1.60;;;;;;;;;;5046633;28;20476;-75
2023/08/08 05:29:29;;;;;;;7.25;1.45;;;;;;;;;;5026597;28;20037;-75
2023/08/08 05:31:55;;;;;;;5.75;1.40;;;;;;;;;;5059408;28;20516;-74
2023/08/08 05:34:22;;;;;;;6.65;1.38;;;;;;;;;;5044935;28;20045;-75
2023/08/08 05:36:48;;;;;;;6.25;1.50;;;;;;;;;;5049092;28;20167;-74
2023/08/08 05:39:14;;;;;;;6.95;1.40;;;;;;;;;;5054743;28;20442;-74
2023/08/08 05:41:40;;;;;;;4.35;1.20;;;;;;;;;;5050447;28;20112;-74
2023/08/08 05:44:06;;;;;;;8.18;1.77;;;;;;;;;;5054763;28;20052;-75
2023/08/08 05:46:32;;;;;;;4.30;1.20;;;;;;;;;;5049268;28;20510;-75
2023/08/08 05:48:59;;;;;;;7.07;1.30;;;;;;;;;;5054416;28;20115;-75
2023/08/08 05:51:25;;;;;;;7.50;1.25;;;;;;;;;;5054648;28;20084;-76
2023/08/08 05:53:51;;;;;;;4.70;1.33;;;;;;;;;;5054828;28;20032;-75
2023/08/08 05:56:17;;;;;;;5.63;1.45;;;;;;;;;;5054457;28;20033;-75
2023/08/08 05:58:44;;;;;;;5.82;1.27;;;;;;;;;;5054297;28;20045;-75
2023/08/08 06:01:11;;;;;;;4.63;1.13;;;;;;;;;;5038356;28;20041;-75
2023/08/08 06:03:37;;;;;;;4.57;1.25;;;;;;;;;;5055833;28;20062;-76
2023/08/08 06:06:04;;;;;;;7.15;1.52;;;;;;;;;;5054704;28;20070;-80
2023/08/08 06:08:31;;;;;;;7.10;1.38;;;;;;;;;;5038193;28;20041;-75
2023/08/08 06:10:57;;;;;;;7.82;1.63;;;;;;;;;;5056175;28;20041;-74
2023/08/08 06:13:23;;;;;;;10.45;1.40;;;;;;;;;;5054058;28;20041;-77
2023/08/08 06:15:49;;;;;;;8.05;1.42;;;;;;;;;;5054167;28;20544;-77
2023/08/08 06:18:16;;;;;;;4.90;1.08;;;;;;;;;;5018440;28;20444;-76
2023/08/08 06:20:42;;;;;;;5.95;1.20;;;;;;;;;;5070682;28;20396;-77
2023/08/08 06:23:08;;;;;;;5.55;1.20;;;;;;;;;;5054264;28;20037;-77
2023/08/08 06:25:35;;;;;;;9.60;1.40;;;;;;;;;;5055125;28;20550;-77
2023/08/08 06:28:03;;;;;;;6.13;1.17;;;;;;;;;;5054248;28;20029;-77
2023/08/08 06:30:29;;;;;;;5.88;1.65;;;;;;;;;;5053742;28;20041;-77
2023/08/08 06:32:55;;;;;;;7.53;1.23;;;;;;;;;;5023278;28;20037;-77
2023/08/08 06:35:21;;;;;;;5.35;1.40;;;;;;;;;;5056093;28;20060;-76
2023/08/08 06:37:47;;;;;;;6.15;1.00;;;;;;;;;;5050589;28;20049;-78
2023/08/08 06:40:13;;;;;;;5.55;1.15;;;;;;;;;;5042430;28;20117;-76
2023/08/08 06:42:39;;;;;;;4.75;1.05;;;;;;;;;;5043879;28;20432;-77
2023/08/08 06:45:06;;;;;;;7.00;1.20;;;;;;;;;;5055135;28;20069;-77
2023/08/08 06:47:32;;;;;;;5.15;1.42;;;;;;;;;;5052188;28;20504;-76
2023/08/08 06:49:58;;;;;;;6.35;1.10;;;;;;;;;;5048688;28;20048;-77
2023/08/08 06:52:24;;;;;;;4.18;1.33;;;;;;;;;;5064248;28;20052;-75
2023/08/08 06:54:50;;;;;;;8.35;1.10;;;;;;;;;;5045941;28;20045;-77
2023/08/08 06:57:16;;;;;;;4.93;1.00;;;;;;;;;;5040512;28;20506;-77
2023/08/08 06:59:42;;;;;;;7.80;1.10;;;;;;;;;;5058178;28;20064;-78
2023/08/08 07:02:09;;;;;;;5.32;1.13;;;;;;;;;;5056256;28;20400;-77
2023/08/08 07:04:35;;;;;;;5.53;1.02;;;;;;;;;;5049596;28;20053;-77
2023/08/08 07:07:01;;;;;;;3.95;1.10;;;;;;;;;;5037262;28;20048;-77
2023/08/08 07:09:27;;;;;;;4.40;1.20;;;;;;;;;;5077566;28;20049;-76
2023/08/08 07:11:53;;;;;;;4.63;1.30;;;;;;;;;;5048544;28;20072;-77
2023/08/08 07:14:20;;;;;;;5.28;1.20;;;;;;;;;;5053242;28;20511;-77
2023/08/08 07:16:46;;;;;;;6.82;1.10;;;;;;;;;;5034938;28;20057;-77
2023/08/08 07:19:12;;;;;;;6.03;1.17;;;;;;;;;;5038766;28;20065;-77
2023/08/08 07:21:38;;;;;;;5.85;0.95;;;;;;;;;;5061447;28;20041;-77
2023/08/08 07:24:04;;;;;;;7.55;1.30;;;;;;;;;;5053052;28;20048;-77
2023/08/08 07:26:30;;;;;;;5.80;1.40;;;;;;;;;;5052795;28;20069;-75
2023/08/08 07:28:56;;;;;;;4.70;1.13;;;;;;;;;;5053190;28;20082;-78
2023/08/08 07:31:22;;;;;;;4.40;1.08;;;;;;;;;;5053059;28;20079;-76
2023/08/08 07:33:48;;;;;;;5.50;1.38;;;;;;;;;;5036202;28;20040;-77
2023/08/08 07:36:14;;;;;;;4.80;1.13;;;;;;;;;;5052951;28;20033;-76
2023/08/08 07:38:40;;;;;;;5.30;1.00;;;;;;;;;;5053247;28;20496;-77
2023/08/08 07:41:06;;;;;;;6.55;1.30;;;;;;;;;;5052572;28;20037;-77
2023/08/08 07:43:33;;;;;;;5.85;1.00;;;;;;;;;;5053010;28;20505;-75
2023/08/08 07:45:59;;;;;;;6.38;1.25;;;;;;;;;;5036125;28;20064;-76
2023/08/08 07:48:25;;;;;;;3.45;1.10;;;;;;;;;;5053108;28;20136;-76
2023/08/08 07:50:52;;;;;;;4.65;0.93;;;;;;;;;;5052883;28;20051;-77
2023/08/08 07:53:18;;;;;;;4.28;1.08;;;;;;;;;;5052869;28;20079;-76
2023/08/08 07:55:44;;;;;;;9.95;1.63;;;;;;;;;;5035391;28;20088;-76
2023/08/08 07:58:10;;;;;;;4.53;0.90;;;;;;;;;;5053651;28;20139;-76
2023/08/08 08:00:38;;;;;;;4.40;1.00;;;;;;;;;;5052231;28;20466;-75
2023/08/08 08:03:04;;;;;;;4.43;1.13;;;;;;;;;;5052333;28;20044;-75
2023/08/08 08:05:30;;;;;;;4.78;1.40;;;;;;;;;;5052128;28;20048;-75
2023/08/08 08:07:56;;;;;;;3.88;0.90;;;;;;;;;;5052674;28;20080;-77
2023/08/08 08:10:22;;;;;;;6.22;1.27;;;;;;;;;;5051963;28;20132;-76
2023/08/08 08:12:48;;;;;;;7.55;1.20;;;;;;;;;;5052769;28;20093;-76
2023/08/08 08:15:15;;;;;;;6.93;1.05;;;;;;;;;;5052166;28;20374;-76
2023/08/08 08:17:41;;;;;;;4.97;1.10;;;;;;;;;;5051865;28;20036;-75
2023/08/08 08:20:11;;;;;;;4.25;1.20;;;;;;;;;;5052061;28;20037;-75
2023/08/08 08:22:38;;;;;;;4.20;1.00;;;;;;;;;;5052110;28;20116;-75
2023/08/08 08:25:05;;;;;;;6.00;1.27;;;;;;;;;;5051818;28;20044;-76
2023/08/08 08:27:31;;;;;;;3.65;1.02;;;;;;;;;;5051484;28;20049;-75
2023/08/08 08:29:57;;;;;;;3.88;0.80;;;;;;;;;;5052083;28;20040;-75
2023/08/08 08:32:23;;;;;;;3.55;1.30;;;;;;;;;;5052157;28;20076;-75
2023/08/08 08:34:49;;;;;;;7.57;1.20;;;;;;;;;;5068749;28;20071;-75
2023/08/08 08:37:15;;;;;;;4.28;1.27;;;;;;;;;;5035044;28;20067;-76
2023/08/08 08:39:41;;;;;;;2.92;0.93;;;;;;;;;;5052268;28;20431;-75
2023/08/08 08:42:11;;;;;;;6.18;1.17;;;;;;;;;;5051750;28;20041;-76
2023/08/08 08:44:37;;;;;;;6.38;1.20;;;;;;;;;;5051709;28;20047;-76
2023/08/08 08:47:04;;;;;;;7.15;1.23;;;;;;;;;;5051791;28;20120;-76
2023/08/08 08:49:31;;;;;;;4.82;1.10;;;;;;;;;;5051560;28;20401;-76
2023/08/08 08:52:00;;;;;;;4.53;1.30;;;;;;;;;;5052135;28;20550;-77
2023/08/08 08:54:26;;;;;;;3.47;0.80;;;;;;;;;;5035042;28;20141;-76
2023/08/08 08:56:52;;;;;;;6.05;1.33;;;;;;;;;;5051305;28;20039;-77
2023/08/08 08:59:18;;;;;;;4.93;1.40;;;;;;;;;;5052408;28;20033;-78
2023/08/08 09:01:45;;;;;;;5.35;1.27;;;;;;;;;;5051588;28;20043;-77
2023/08/08 09:04:11;;;;;;;3.28;1.23;;;;;;;;;;5051438;28;20067;-76
2023/08/08 09:06:38;;;;;;;3.75;1.00;;;;;;;;;;5052882;28;20045;-77
2023/08/08 09:09:05;;;;;;;4.90;1.05;;;;;;;;;;5051860;28;20076;-76
2023/08/08 09:11:31;;;;;;;4.93;1.63;;;;;;;;;;5018306;28;20037;-76
2023/08/08 09:13:59;;;;;;;6.50;1.65;;;;;;;;;;5051399;28;20044;-76
2023/08/08 09:16:25;;;;;;;4.80;0.98;;;;;;;;;;5049798;28;20056;-74
2023/08/08 09:18:52;;;;;;;4.95;1.00;;;;;;;;;;5048006;28;20036;-79
2023/08/08 09:21:19;;;;;;;5.10;1.23;;;;;;;;;;5032009;28;20037;-75
2023/08/08 09:23:45;;;;;;;4.85;1.10;;;;;;;;;;5049041;28;20454;-75
2023/08/08 09:26:16;;;;;;;3.63;0.95;;;;;;;;;;5050599;28;20409;-76
2023/08/08 09:28:42;;;;;;;5.10;1.00;;;;;;;;;;5050255;28;20083;-77
2023/08/08 09:31:08;;;;;;;4.75;1.27;;;;;;;;;;5051055;28;20388;-79
2023/08/08 09:33:34;;;;;;;3.47;1.00;;;;;;;;;;5034684;28;20071;-76
2023/08/08 09:36:00;;;;;;;4.50;1.17;;;;;;;;;;5050564;28;20052;-78
2023/08/08 09:38:26;;;;;;;4.75;0.90;;;;;;;;;;5033778;28;20123;-77
2023/08/08 09:40:52;;;;;;;5.32;1.13;;;;;;;;;;5067637;28;20524;-78
2023/08/08 09:43:18;;;;;;;5.00;0.95;;;;;;;;;;5034415;28;20065;-75
2023/08/08 09:45:44;;;;;;;3.92;1.23;;;;;;;;;;5052541;28;20075;-76
2023/08/08 09:48:10;;;;;;;2.78;0.93;;;;;;;;;;5051445;28;20481;-77
2023/08/08 09:50:36;;;;;;;3.30;1.00;;;;;;;;;;5052138;28;20044;-78
2023/08/08 09:53:03;;;;;;;4.63;1.20;;;;;;;;;;5033895;28;20062;-77
2023/08/08 09:55:30;;;;;;;6.40;1.55;;;;;;;;;;5033642;28;20041;-78
2023/08/08 09:57:58;;;;;;;4.63;1.38;;;;;;;;;;5051193;28;20508;-76
2023/08/08 10:00:27;;;;;;;4.95;1.40;;;;;;;;;;5047242;28;20079;-76
2023/08/08 10:02:54;;;;;;;5.82;0.93;;;;;;;;;;5041783;28;20052;-77
2023/08/08 10:05:20;;;;;;;6.30;1.30;;;;;;;;;;5050458;28;20041;-74
2023/08/08 10:07:46;;;;;;;6.03;1.23;;;;;;;;;;5051954;28;20051;-72
2023/08/08 10:10:13;;;;;;;7.97;1.30;;;;;;;;;;5051174;28;20120;-76
2023/08/08 10:12:40;;;;;;;6.90;1.33;;;;;;;;;;5050896;28;20037;-75
2023/08/08 10:15:10;;;;;;;7.43;1.42;;;;;;;;;;5050621;28;20443;-71
2023/08/08 10:17:38;;;;;;;9.02;1.48;;;;;;;;;;5051080;28;20052;-76
2023/08/08 10:20:11;;;;;;;5.20;1.33;;;;;;;;;;5034493;28;20131;-76
2023/08/08 10:22:38;;;;;;;5.03;1.00;;;;;;;;;;5051302;28;20044;-73
2023/08/08 10:25:05;;;;;;;3.97;1.10;;;;;;;;;;5053821;28;20408;-74
2023/08/08 10:27:35;;;;;;;8.05;1.20;;;;;;;;;;5053913;28;20393;-76
2023/08/08 10:30:07;;;;;;;5.95;1.30;;;;;;;;;;5054816;28;20037;-76
2023/08/08 10:32:46;;;;;;;8.18;1.08;;;;;;;;;;5054249;28;20049;-75
2023/08/08 10:35:13;;;;;;;6.30;1.25;;;;;;;;;;5035903;28;20037;-74
2023/08/08 10:37:39;;;;;;;3.97;0.90;;;;;;;;;;5037103;28;20485;-75
2023/08/08 10:40:07;;;;;;;5.50;1.10;;;;;;;;;;5053715;28;20029;-76
2023/08/08 10:42:33;;;;;;;3.50;0.95;;;;;;;;;;5054085;28;20055;-75
2023/08/08 10:45:00;;;;;;;8.15;1.60;;;;;;;;;;5036295;28;20040;-75
2023/08/08 10:47:27;;;;;;;5.97;1.27;;;;;;;;;;5037531;28;20044;-75
2023/08/08 10:49:59;;;;;;;6.65;1.20;;;;;;;;;;5054246;28;20397;-75
2023/08/08 10:52:25;;;;;;;3.92;1.23;;;;;;;;;;5053060;28;20075;-75
2023/08/08 10:54:54;;;;;;;4.07;1.27;;;;;;;;;;5051939;28;20033;-75
2023/08/08 10:57:21;;;;;;;5.60;1.50;;;;;;;;;;5036573;28;20048;-75
2023/08/08 10:59:47;;;;;;;3.40;1.33;;;;;;;;;;5053307;28;20041;-75
2023/08/08 11:02:14;;;;;;;3.72;0.93;;;;;;;;;;5037215;28;20044;-75
2023/08/08 11:04:41;;;;;;;7.80;1.30;;;;;;;;;;5054219;28;20059;-75
2023/08/08 11:07:08;;;;;;;3.92;1.00;;;;;;;;;;5053692;28;20048;-75
2023/08/08 11:09:34;;;;;;;5.45;1.08;;;;;;;;;;5053214;28;20045;-76
2023/08/08 11:12:00;;;;;;;5.28;1.38;;;;;;;;;;5037017;28;20552;-75
2023/08/08 11:14:26;;;;;;;6.18;1.40;;;;;;;;;;5036785;28;20044;-75
2023/08/08 11:16:53;;;;;;;3.60;1.20;;;;;;;;;;5054606;28;20049;-74
2023/08/08 11:19:19;;;;;;;5.30;1.40;;;;;;;;;;5053280;28;20033;-74
2023/08/08 11:21:46;;;;;;;8.88;1.50;;;;;;;;;;5052686;28;20120;-75
2023/08/08 11:24:13;;;;;;;5.65;1.15;;;;;;;;;;5054068;28;20041;-75
2023/08/08 11:26:45;;;;;;;5.85;1.45;;;;;;;;;;5036324;28;20044;-75
2023/08/08 11:29:11;;;;;;;6.63;1.40;;;;;;;;;;5053048;28;20481;-75
2023/08/08 11:31:37;;;;;;;3.50;1.40;;;;;;;;;;5053463;28;20456;-77
2023/08/08 11:34:07;;;;;;;6.03;1.27;;;;;;;;;;5052870;28;20045;-74
2023/08/08 11:36:34;;;;;;;5.78;1.20;;;;;;;;;;5026944;28;20119;-77
2023/08/08 11:39:07;;;;;;;5.30;1.15;;;;;;;;;;5052989;28;20045;-76
2023/08/08 11:41:34;;;;;;;6.40;1.50;;;;;;;;;;5054722;28;20041;-74
2023/08/08 11:44:01;;;;;;;4.53;1.20;;;;;;;;;;5054332;28;20040;-75
2023/08/08 11:46:27;;;;;;;4.15;1.10;;;;;;;;;;5053765;28;20049;-72
2023/08/08 11:48:54;;;;;;;4.43;1.00;;;;;;;;;;5052908;28;20052;-76
2023/08/08 11:51:20;;;;;;;5.95;1.05;;;;;;;;;;5053669;28;20041;-76
2023/08/08 11:53:53;;;;;;;8.57;1.50;;;;;;;;;;5052720;28;20040;-73
2023/08/08 11:56:22;;;;;;;4.10;0.93;;;;;;;;;;5051889;28;20112;-77
2023/08/08 11:58:51;;;;;;;7.35;1.33;;;;;;;;;;5052733;28;20112;-78
2023/08/08 12:01:20;;;;;;;6.97;1.45;;;;;;;;;;5053954;28;20041;-75
2023/08/08 12:03:46;;;;;;;4.60;1.10;;;;;;;;;;5051388;28;20072;-75
2023/08/08 12:06:16;;;;;;;4.28;1.30;;;;;;;;;;5053641;28;20048;-75
2023/08/08 12:08:43;;;;;;;5.15;1.20;;;;;;;;;;5051672;28;20033;-75
2023/08/08 12:11:10;;;;;;;6.03;1.20;;;;;;;;;;5035487;28;20048;-76
2023/08/08 12:13:37;;;;;;;4.75;1.20;;;;;;;;;;5052274;28;20150;-75
2023/08/08 12:16:07;;;;;;;4.47;1.65;;;;;;;;;;5052326;28;20062;-76
2023/08/08 12:18:33;;;;;;;5.50;1.45;;;;;;;;;;5052490;28;20059;-74
2023/08/08 12:20:59;;;;;;;6.60;1.20;;;;;;;;;;5053767;28;20041;-75
2023/08/08 12:23:27;;;;;;;5.22;1.00;;;;;;;;;;5052247;28;20033;-73
2023/08/08 12:25:53;;;;;;;5.70;1.17;;;;;;;;;;5053872;28;20044;-75
2023/08/08 12:28:19;;;;;;;4.40;0.90;;;;;;;;;;5053798;28;20094;-74
2023/08/08 12:30:46;;;;;;;4.07;1.02;;;;;;;;;;5027146;28;20081;-75
2023/08/08 12:33:12;;;;;;;5.43;1.30;;;;;;;;;;5047636;28;20045;-77
2023/08/08 12:35:38;;;;;;;4.75;1.27;;;;;;;;;;5052493;28;20043;-75
2023/08/08 12:38:04;;;;;;;6.53;1.40;;;;;;;;;;5053675;28;20049;-75
2023/08/08 12:40:30;;;;;;;4.72;1.30;;;;;;;;;;5067509;28;20061;-76
2023/08/08 12:42:56;;;;;;;4.82;1.17;;;;;;;;;;5052408;28;20451;-72
2023/08/08 12:45:23;;;;;;;6.13;1.27;;;;;;;;;;5053144;28;20039;-75
2023/08/08 12:47:49;;;;;;;4.40;1.40;;;;;;;;;;5052035;28;20045;-73
2023/08/08 12:50:16;;;;;;;5.30;1.27;;;;;;;;;;5050397;28;20036;-74
2023/08/08 12:52:42;;;;;;;7.47;1.67;;;;;;;;;;5052354;28;20119;-73
2023/08/08 12:55:09;;;;;;;5.13;1.20;;;;;;;;;;5049868;28;20056;-76
2023/08/08 12:57:35;;;;;;;4.68;1.10;;;;;;;;;;5033897;28;20036;-76
2023/08/08 13:00:01;;;;;;;6.80;1.40;;;;;;;;;;5052514;28;20037;-76
2023/08/08 13:02:27;;;;;;;6.28;1.27;;;;;;;;;;5051114;28;20068;-75
2023/08/08 13:04:53;;;;;;;4.97;1.30;;;;;;;;;;5053004;28;20503;-77
2023/08/08 13:07:19;;;;;;;6.70;1.20;;;;;;;;;;5035089;28;20045;-75
2023/08/08 13:09:45;;;;;;;7.05;1.30;;;;;;;;;;5050300;28;20073;-76
2023/08/08 13:12:12;;;;;;;9.13;1.83;;;;;;;;;;5051447;28;20044;-76
2023/08/08 13:14:38;;;;;;;10.20;1.20;;;;;;;;;;5061434;28;20056;-77
2023/08/08 13:17:04;;;;;;;5.93;1.60;;;;;;;;;;5045721;28;20413;-76
2023/08/08 13:19:30;;;;;;;7.85;1.60;;;;;;;;;;5073577;28;20045;-77
2023/08/08 13:21:56;;;;;;;4.40;1.40;;;;;;;;;;5042518;28;20111;-73
2023/08/08 13:24:23;;;;;;;5.55;1.25;;;;;;;;;;5074424;28;20041;-76
2023/08/08 13:26:49;;;;;;;3.58;1.20;;;;;;;;;;5038023;28;20374;-79
2023/08/08 13:29:16;;;;;;;6.18;1.50;;;;;;;;;;5041125;28;20478;-74
2023/08/08 13:31:42;;;;;;;7.75;1.70;;;;;;;;;;5037452;28;20064;-75
2023/08/08 13:34:09;;;;;;;7.15;1.60;;;;;;;;;;5041550;28;20171;-76
2023/08/08 13:36:35;;;;;;;4.75;1.20;;;;;;;;;;5041464;28;20124;-75
2023/08/08 13:39:01;;;;;;;8.23;1.80;;;;;;;;;;5042018;28;20083;-75
2023/08/08 13:41:27;;;;;;;10.40;1.67;;;;;;;;;;5042206;28;20048;-75
2023/08/08 13:43:53;;;;;;;4.35;1.33;;;;;;;;;;5044716;28;20073;-75
2023/08/08 13:46:19;;;;;;;6.63;1.60;;;;;;;;;;5050932;28;20044;-76
2023/08/08 13:48:45;;;;;;;5.55;1.33;;;;;;;;;;5037194;28;20052;-76
2023/08/08 13:51:11;;;;;;;5.38;1.20;;;;;;;;;;5071953;28;20042;-78
2023/08/08 13:53:37;;;;;;;4.13;1.35;;;;;;;;;;5039173;28;20037;-76
2023/08/08 13:56:04;;;;;;;6.50;1.23;;;;;;;;;;5037568;28;20129;-77
2023/08/08 13:58:30;;;;;;;4.40;1.17;;;;;;;;;;5056666;28;20038;-75
2023/08/08 14:00:59;;;;;;;6.18;1.30;;;;;;;;;;5046988;28;20091;-75
2023/08/08 14:03:25;;;;;;;5.13;1.35;;;;;;;;;;5070190;28;20033;-75
2023/08/08 14:05:52;;;;;;;6.80;1.30;;;;;;;;;;5049103;28;20072;-75
2023/08/08 14:08:18;;;;;;;4.93;1.30;;;;;;;;;;5077703;28;20092;-74
2023/08/08 14:10:44;;;;;;;4.05;1.13;;;;;;;;;;5044947;28;20052;-75
2023/08/08 14:13:11;;;;;;;5.07;1.13;;;;;;;;;;5054710;28;20041;-76
2023/08/08 14:15:37;;;;;;;5.65;1.30;;;;;;;;;;5055684;28;20401;-76
2023/08/08 14:18:03;;;;;;;5.05;1.25;;;;;;;;;;5037940;28;20073;-74
2023/08/08 14:20:30;;;;;;;3.60;1.27;;;;;;;;;;5055661;28;20033;-77
2023/08/08 14:22:56;;;;;;;7.38;1.50;;;;;;;;;;5054750;28;20068;-79
2023/08/08 14:25:22;;;;;;;4.25;1.10;;;;;;;;;;5054492;28;20045;-74
2023/08/08 14:27:49;;;;;;;6.72;1.60;;;;;;;;;;5053891;28;20041;-77
2023/08/08 14:30:15;;;;;;;4.25;1.35;;;;;;;;;;5055843;28;20091;-77
2023/08/08 14:32:41;;;;;;;5.53;1.30;;;;;;;;;;5037660;28;20048;-79
2023/08/08 14:35:08;;;;;;;9.13;1.70;;;;;;;;;;5053750;28;20045;-76
2023/08/08 14:37:35;;;;;;;6.07;1.30;;;;;;;;;;5054186;28;20045;-76
2023/08/08 14:40:02;;;;;;;5.82;1.38;;;;;;;;;;5055580;28;20532;-75